Time;durP1;ratioP1;P1;durP2;ratioP2;P2;SDS_P1;SDS_P2;PMS_P1;PMS_P2;Temp;Humidity;BMP_temperature;BMP_pressure;BME280_temperature;BME280_humidity;BME280_pressure;Samples;Min_cycle;Max_cycle;Signal;HPM_P1;HPM_P2
2024/01/16 00:00:23;;;;;;;6.57;2.20;;;;;;;;;;6246787;22;20012;-79
2024/01/16 00:02:50;;;;;;;4.15;1.90;;;;;;;;;;6270800;22;20035;-79
2024/01/16 00:05:17;;;;;;;6.78;2.67;;;;;;;;;;6246969;22;20095;-79
2024/01/16 00:07:44;;;;;;;6.75;2.35;;;;;;;;;;6247163;22;20024;-79
2024/01/16 00:10:10;;;;;;;5.30;2.33;;;;;;;;;;6247310;22;20380;-79
2024/01/16 00:12:37;;;;;;;7.35;2.38;;;;;;;;;;6245341;22;20020;-79
2024/01/16 00:15:05;;;;;;;7.05;2.30;;;;;;;;;;6245678;22;20024;-78
2024/01/16 00:17:32;;;;;;;5.90;2.67;;;;;;;;;;6246066;22;20081;-79
2024/01/16 00:20:00;;;;;;;4.93;2.42;;;;;;;;;;6270867;22;20012;-79
2024/01/16 00:22:27;;;;;;;5.53;2.85;;;;;;;;;;6245855;22;20031;-79
2024/01/16 00:24:54;;;;;;;5.13;2.72;;;;;;;;;;6246953;22;20020;-78
2024/01/16 00:27:21;;;;;;;5.47;2.70;;;;;;;;;;6247036;22;20019;-79
2024/01/16 00:29:47;;;;;;;5.63;2.72;;;;;;;;;;6247632;22;20016;-79
2024/01/16 00:32:15;;;;;;;6.78;3.13;;;;;;;;;;6247345;22;20012;-78
2024/01/16 00:34:43;;;;;;;5.32;3.00;;;;;;;;;;6247288;23;20027;-78
2024/01/16 00:37:10;;;;;;;7.78;2.97;;;;;;;;;;6248711;22;20083;-78
2024/01/16 00:39:36;;;;;;;5.55;2.10;;;;;;;;;;6273129;22;20087;-79
2024/01/16 00:42:03;;;;;;;5.28;2.35;;;;;;;;;;6255719;22;20019;-78
2024/01/16 00:44:30;;;;;;;5.43;2.53;;;;;;;;;;6260160;22;20068;-78
2024/01/16 00:46:57;;;;;;;6.35;2.65;;;;;;;;;;6260718;22;20016;-78
2024/01/16 00:49:23;;;;;;;4.95;2.40;;;;;;;;;;6253111;22;20035;-78
2024/01/16 00:51:50;;;;;;;7.03;2.60;;;;;;;;;;6246782;22;20020;-79
2024/01/16 00:54:17;;;;;;;6.40;2.38;;;;;;;;;;6246029;22;20016;-79
2024/01/16 00:56:44;;;;;;;7.53;2.72;;;;;;;;;;6246756;22;20024;-78
2024/01/16 00:59:10;;;;;;;5.32;2.33;;;;;;;;;;6246307;22;20023;-78
2024/01/16 01:01:37;;;;;;;3.33;2.10;;;;;;;;;;6270709;22;20050;-79
2024/01/16 01:04:04;;;;;;;4.90;2.83;;;;;;;;;;6245990;22;20012;-76
2024/01/16 01:06:31;;;;;;;7.35;2.55;;;;;;;;;;6246180;22;20034;-78
2024/01/16 01:08:59;;;;;;;5.03;2.33;;;;;;;;;;6246456;22;20016;-78
2024/01/16 01:11:25;;;;;;;6.70;2.30;;;;;;;;;;6245880;22;20103;-78
2024/01/16 01:13:53;;;;;;;5.38;2.80;;;;;;;;;;6246153;22;20070;-79
2024/01/16 01:16:20;;;;;;;5.65;2.72;;;;;;;;;;6245761;22;20020;-79
2024/01/16 01:18:46;;;;;;;3.88;2.40;;;;;;;;;;6244748;23;20019;-78
2024/01/16 01:21:13;;;;;;;8.68;2.53;;;;;;;;;;6245726;22;20023;-78
2024/01/16 01:23:40;;;;;;;7.15;2.22;;;;;;;;;;6246343;22;20023;-78
2024/01/16 01:26:07;;;;;;;7.90;2.63;;;;;;;;;;6245734;22;20039;-78
2024/01/16 01:28:33;;;;;;;5.28;3.03;;;;;;;;;;6246281;22;20024;-78
2024/01/16 01:31:00;;;;;;;7.88;2.60;;;;;;;;;;6246170;22;20016;-77
2024/01/16 01:33:27;;;;;;;7.60;2.45;;;;;;;;;;6245708;22;20016;-78
2024/01/16 01:35:54;;;;;;;6.18;1.98;;;;;;;;;;6246041;22;20711;-79
2024/01/16 01:38:21;;;;;;;7.78;2.70;;;;;;;;;;6245424;22;20023;-78
2024/01/16 01:40:48;;;;;;;4.28;2.00;;;;;;;;;;6246360;22;20074;-78
2024/01/16 01:43:19;;;;;;;6.47;2.28;;;;;;;;;;6245529;22;20369;-78
2024/01/16 01:46:18;;;;;;;4.93;2.30;;;;;;;;;;6246175;22;20036;-78
2024/01/16 01:48:47;;;;;;;4.63;2.05;;;;;;;;;;6227584;22;20016;-79
2024/01/16 01:51:19;;;;;;;3.67;2.13;;;;;;;;;;6245380;22;20024;-77
2024/01/16 01:53:49;;;;;;;6.70;2.28;;;;;;;;;;6246076;22;20295;-78
2024/01/16 01:56:20;;;;;;;5.97;2.67;;;;;;;;;;6245960;22;20016;-78
2024/01/16 01:58:52;;;;;;;5.35;1.98;;;;;;;;;;6247316;23;20417;-78
2024/01/16 02:01:21;;;;;;;6.13;2.67;;;;;;;;;;6245596;22;20027;-78
2024/01/16 02:03:50;;;;;;;5.63;1.88;;;;;;;;;;6246013;22;20012;-78
2024/01/16 02:06:16;;;;;;;3.90;1.83;;;;;;;;;;6245434;22;20016;-79
2024/01/16 02:08:44;;;;;;;5.90;2.20;;;;;;;;;;6246084;22;20016;-78
2024/01/16 02:11:12;;;;;;;5.70;1.50;;;;;;;;;;6245356;22;20020;-78
2024/01/16 02:13:38;;;;;;;8.55;2.03;;;;;;;;;;6246161;22;20024;-78
2024/01/16 02:16:05;;;;;;;5.68;1.73;;;;;;;;;;6219177;22;20009;-79
2024/01/16 02:18:32;;;;;;;5.07;1.80;;;;;;;;;;6246519;22;20016;-79
2024/01/16 02:21:01;;;;;;;2.88;1.63;;;;;;;;;;6247893;22;20380;-79
2024/01/16 02:23:28;;;;;;;2.50;1.70;;;;;;;;;;6246116;22;20016;-78
2024/01/16 02:25:55;;;;;;;5.35;1.67;;;;;;;;;;6248320;22;20454;-77
2024/01/16 02:28:22;;;;;;;4.88;1.88;;;;;;;;;;6252693;22;20023;-79
2024/01/16 02:30:49;;;;;;;3.40;1.63;;;;;;;;;;6247601;22;20020;-78
2024/01/16 02:33:15;;;;;;;6.82;1.65;;;;;;;;;;6251143;22;20046;-78
2024/01/16 02:35:43;;;;;;;3.25;1.63;;;;;;;;;;6254288;23;20020;-79
2024/01/16 02:38:10;;;;;;;4.85;1.70;;;;;;;;;;6255218;22;20075;-77
2024/01/16 02:40:36;;;;;;;4.72;1.88;;;;;;;;;;6249219;22;20398;-78
2024/01/16 02:43:03;;;;;;;5.70;1.45;;;;;;;;;;6245778;22;20019;-78
2024/01/16 02:45:30;;;;;;;3.47;1.50;;;;;;;;;;6244924;22;20332;-79
2024/01/16 02:47:56;;;;;;;3.67;1.75;;;;;;;;;;6245603;22;20016;-78
2024/01/16 02:50:23;;;;;;;4.50;1.50;;;;;;;;;;6268840;22;20016;-79
2024/01/16 02:52:50;;;;;;;3.67;1.65;;;;;;;;;;6245669;22;20077;-79
2024/01/16 02:55:17;;;;;;;5.97;1.70;;;;;;;;;;6244961;22;20456;-79
2024/01/16 02:57:44;;;;;;;4.05;1.92;;;;;;;;;;6269410;22;20020;-78
2024/01/16 03:00:11;;;;;;;5.15;2.08;;;;;;;;;;6245116;22;20012;-80
2024/01/16 03:02:39;;;;;;;6.35;1.67;;;;;;;;;;6245774;22;20027;-79
2024/01/16 03:05:06;;;;;;;4.77;1.50;;;;;;;;;;6245136;22;20369;-78
2024/01/16 03:07:34;;;;;;;5.28;1.60;;;;;;;;;;6245482;22;20027;-79
2024/01/16 03:10:00;;;;;;;6.85;2.00;;;;;;;;;;6245472;22;20013;-79
2024/01/16 03:12:27;;;;;;;6.53;1.67;;;;;;;;;;6245306;22;20091;-79
2024/01/16 03:14:54;;;;;;;2.58;1.60;;;;;;;;;;6245991;22;20023;-79
2024/01/16 03:17:21;;;;;;;5.97;1.52;;;;;;;;;;6244911;22;20376;-78
2024/01/16 03:19:48;;;;;;;3.40;1.30;;;;;;;;;;6243521;23;20360;-78
2024/01/16 03:22:15;;;;;;;14.90;2.13;;;;;;;;;;6242832;22;20022;-79
2024/01/16 03:24:41;;;;;;;4.00;1.60;;;;;;;;;;6245403;22;20095;-78
2024/01/16 03:27:08;;;;;;;3.42;1.60;;;;;;;;;;6243372;22;20040;-78
2024/01/16 03:29:35;;;;;;;4.28;1.55;;;;;;;;;;6245425;22;20376;-78
2024/01/16 03:32:02;;;;;;;5.60;1.60;;;;;;;;;;6245521;22;20070;-78
2024/01/16 03:34:31;;;;;;;4.63;1.45;;;;;;;;;;6245247;22;20020;-79
2024/01/16 03:36:58;;;;;;;3.28;1.75;;;;;;;;;;6245668;22;20020;-78
2024/01/16 03:39:25;;;;;;;5.05;1.40;;;;;;;;;;6245313;22;20020;-79
2024/01/16 03:41:52;;;;;;;4.28;1.83;;;;;;;;;;6246628;22;20016;-78
2024/01/16 03:44:19;;;;;;;5.65;1.30;;;;;;;;;;6246401;22;20016;-78
2024/01/16 03:46:46;;;;;;;4.30;1.73;;;;;;;;;;6249089;22;20078;-79
2024/01/16 03:49:12;;;;;;;3.13;1.30;;;;;;;;;;6247227;22;20016;-79
2024/01/16 03:51:42;;;;;;;3.92;1.70;;;;;;;;;;6243939;23;20023;-78
2024/01/16 03:54:09;;;;;;;4.15;1.80;;;;;;;;;;6244720;22;20015;-78
2024/01/16 03:56:36;;;;;;;7.00;1.52;;;;;;;;;;6246468;22;20016;-78
2024/01/16 03:59:03;;;;;;;3.00;1.42;;;;;;;;;;6247020;22;20020;-78
2024/01/16 04:01:31;;;;;;;3.22;1.60;;;;;;;;;;6247112;22;20067;-78
2024/01/16 04:03:58;;;;;;;5.10;1.40;;;;;;;;;;6271017;22;20012;-79
2024/01/16 04:06:26;;;;;;;6.03;1.40;;;;;;;;;;6246639;22;20047;-78
2024/01/16 04:08:53;;;;;;;6.50;1.70;;;;;;;;;;6270759;22;20012;-79
2024/01/16 04:11:20;;;;;;;4.60;1.65;;;;;;;;;;6246452;22;20012;-78
2024/01/16 04:13:46;;;;;;;4.32;1.50;;;;;;;;;;6247074;22;20051;-79
2024/01/16 04:16:13;;;;;;;6.28;1.60;;;;;;;;;;6246705;22;20020;-78
2024/01/16 04:18:42;;;;;;;4.10;1.60;;;;;;;;;;6247980;22;20020;-78
2024/01/16 04:21:09;;;;;;;5.57;1.35;;;;;;;;;;6247504;22;20062;-79
2024/01/16 04:23:36;;;;;;;7.35;1.60;;;;;;;;;;6249326;22;20020;-78
2024/01/16 04:26:03;;;;;;;7.07;1.80;;;;;;;;;;6255478;22;20027;-79
2024/01/16 04:28:30;;;;;;;13.60;1.60;;;;;;;;;;6256725;22;20089;-78
2024/01/16 04:30:57;;;;;;;6.75;1.50;;;;;;;;;;6253401;22;20023;-78
2024/01/16 04:33:24;;;;;;;3.53;2.00;;;;;;;;;;6246869;22;20024;-79
2024/01/16 04:35:51;;;;;;;5.25;1.52;;;;;;;;;;6247106;22;20463;-79
2024/01/16 04:38:17;;;;;;;3.50;1.40;;;;;;;;;;6246468;22;20012;-79
2024/01/16 04:40:44;;;;;;;6.40;1.50;;;;;;;;;;6247274;22;20058;-78
2024/01/16 04:43:11;;;;;;;6.25;1.48;;;;;;;;;;6246179;22;20020;-79
2024/01/16 04:45:38;;;;;;;2.90;1.50;;;;;;;;;;6246583;22;20020;-79
2024/01/16 04:48:05;;;;;;;4.50;2.10;;;;;;;;;;6246076;22;20448;-78
2024/01/16 04:50:31;;;;;;;4.85;1.65;;;;;;;;;;6246355;22;20303;-79
2024/01/16 04:53:01;;;;;;;3.22;1.25;;;;;;;;;;6246587;22;20016;-80
2024/01/16 04:55:29;;;;;;;3.42;1.20;;;;;;;;;;6245851;22;20020;-77
2024/01/16 04:57:57;;;;;;;7.63;1.60;;;;;;;;;;6246941;22;20349;-78
2024/01/16 05:00:24;;;;;;;4.28;1.20;;;;;;;;;;6245723;22;20042;-79
2024/01/16 05:02:51;;;;;;;3.53;1.63;;;;;;;;;;6245293;22;20008;-78
2024/01/16 05:05:18;;;;;;;3.42;1.80;;;;;;;;;;6244635;22;20016;-78
2024/01/16 05:07:45;;;;;;;3.45;1.30;;;;;;;;;;6244175;22;20433;-78
2024/01/16 05:10:12;;;;;;;3.58;1.38;;;;;;;;;;6243143;22;20012;-79
2024/01/16 05:12:41;;;;;;;6.22;1.40;;;;;;;;;;6244980;22;20429;-79
2024/01/16 05:15:14;;;;;;;2.63;1.50;;;;;;;;;;6245840;22;20023;-80
2024/01/16 05:17:41;;;;;;;5.53;1.50;;;;;;;;;;6246357;22;20337;-79
2024/01/16 05:20:09;;;;;;;5.38;1.70;;;;;;;;;;6246201;22;20012;-78
2024/01/16 05:22:38;;;;;;;5.38;1.40;;;;;;;;;;6246638;22;20025;-78
2024/01/16 05:25:07;;;;;;;6.38;1.40;;;;;;;;;;6244696;22;20020;-77
2024/01/16 05:27:34;;;;;;;8.90;2.33;;;;;;;;;;6245025;22;20016;-77
2024/01/16 05:30:01;;;;;;;3.22;1.50;;;;;;;;;;6246364;22;20020;-78
2024/01/16 05:32:28;;;;;;;3.80;1.55;;;;;;;;;;6267147;22;20027;-78
2024/01/16 05:34:54;;;;;;;5.65;1.63;;;;;;;;;;6246017;22;20016;-79
2024/01/16 05:37:21;;;;;;;3.83;1.38;;;;;;;;;;6245594;22;20023;-79
2024/01/16 05:39:48;;;;;;;4.05;1.33;;;;;;;;;;6246077;22;20012;-79
2024/01/16 05:42:15;;;;;;;6.55;1.55;;;;;;;;;;6245597;22;20008;-82
2024/01/16 05:44:42;;;;;;;2.85;1.52;;;;;;;;;;6246224;22;20023;-77
2024/01/16 05:47:09;;;;;;;3.30;1.65;;;;;;;;;;6244613;22;20008;-78
2024/01/16 05:49:36;;;;;;;5.05;1.60;;;;;;;;;;6246029;22;20039;-78
2024/01/16 05:52:03;;;;;;;9.10;1.65;;;;;;;;;;6245773;22;20012;-77
2024/01/16 05:54:31;;;;;;;8.93;1.58;;;;;;;;;;6243720;23;20446;-77
2024/01/16 05:56:58;;;;;;;5.38;1.75;;;;;;;;;;6246122;22;20364;-78
2024/01/16 05:59:25;;;;;;;5.10;1.80;;;;;;;;;;6245360;22;20055;-78
2024/01/16 06:01:52;;;;;;;8.18;1.80;;;;;;;;;;6245838;22;20016;-79
2024/01/16 06:04:19;;;;;;;3.83;1.35;;;;;;;;;;6245376;22;20016;-77
2024/01/16 06:06:47;;;;;;;7.25;1.40;;;;;;;;;;6246335;22;20386;-77
2024/01/16 06:09:15;;;;;;;;;;;;;;;;;;6253160;22;20468;-77
2024/01/16 06:11:42;;;;;;;4.35;1.52;;;;;;;;;;6254236;22;20317;-77
2024/01/16 06:14:09;;;;;;;7.05;1.90;;;;;;;;;;6254509;22;20012;-77
2024/01/16 06:16:36;;;;;;;2.45;1.60;;;;;;;;;;6256315;22;20024;-78
2024/01/16 06:19:03;;;;;;;5.85;1.48;;;;;;;;;;6253209;22;20016;-78
2024/01/16 06:21:30;;;;;;;2.90;1.45;;;;;;;;;;6245943;22;20024;-78
2024/01/16 06:23:57;;;;;;;14.32;2.75;;;;;;;;;;6245788;22;20380;-77
2024/01/16 06:26:23;;;;;;;3.17;1.40;;;;;;;;;;6243095;22;20511;-79
2024/01/16 06:28:50;;;;;;;4.50;1.63;;;;;;;;;;6244009;22;20322;-77
2024/01/16 06:31:17;;;;;;;4.03;1.38;;;;;;;;;;6243803;22;20306;-78
2024/01/16 06:33:44;;;;;;;5.30;1.38;;;;;;;;;;6244075;22;20016;-77
2024/01/16 06:36:12;;;;;;;3.92;1.45;;;;;;;;;;6243804;22;20433;-77
2024/01/16 06:38:40;;;;;;;5.57;1.60;;;;;;;;;;6244409;22;20036;-78
2024/01/16 06:41:07;;;;;;;5.70;1.70;;;;;;;;;;6268431;22;20012;-78
2024/01/16 06:43:34;;;;;;;3.10;1.55;;;;;;;;;;6245370;22;20068;-77
2024/01/16 06:46:01;;;;;;;5.32;2.58;;;;;;;;;;6245493;22;20333;-78
2024/01/16 06:48:28;;;;;;;7.05;2.10;;;;;;;;;;6244558;22;20380;-77
2024/01/16 06:50:55;;;;;;;7.50;1.60;;;;;;;;;;6245185;22;20440;-77
2024/01/16 06:53:22;;;;;;;4.78;1.90;;;;;;;;;;6245065;22;20027;-77
2024/01/16 06:55:49;;;;;;;6.03;2.00;;;;;;;;;;6245195;22;20051;-79
2024/01/16 06:58:15;;;;;;;3.03;2.00;;;;;;;;;;6244815;22;20013;-77
2024/01/16 07:00:43;;;;;;;4.05;1.88;;;;;;;;;;6245428;22;20018;-78
2024/01/16 07:03:09;;;;;;;5.53;2.75;;;;;;;;;;6245089;22;20087;-77
2024/01/16 07:05:36;;;;;;;7.30;2.05;;;;;;;;;;6245457;22;20020;-78
2024/01/16 07:08:03;;;;;;;5.38;1.60;;;;;;;;;;6245441;22;20448;-78
2024/01/16 07:10:31;;;;;;;7.55;2.35;;;;;;;;;;6245147;22;20027;-77
2024/01/16 07:12:58;;;;;;;5.07;1.80;;;;;;;;;;6245299;22;20095;-78
2024/01/16 07:15:25;;;;;;;8.35;1.92;;;;;;;;;;6244932;22;20103;-78
2024/01/16 07:17:52;;;;;;;5.20;1.92;;;;;;;;;;6245343;22;20074;-78
2024/01/16 07:20:19;;;;;;;4.65;1.75;;;;;;;;;;6244280;22;20020;-77
2024/01/16 07:22:46;;;;;;;4.43;2.15;;;;;;;;;;6245223;22;20022;-78
2024/01/16 07:25:13;;;;;;;5.32;2.40;;;;;;;;;;6244478;22;20024;-78
2024/01/16 07:27:40;;;;;;;9.18;2.55;;;;;;;;;;6245286;22;20334;-78
2024/01/16 07:30:07;;;;;;;4.45;2.03;;;;;;;;;;6244905;22;20020;-78
2024/01/16 07:32:34;;;;;;;3.30;1.85;;;;;;;;;;6247337;22;20094;-78
2024/01/16 07:35:02;;;;;;;7.40;2.67;;;;;;;;;;6247517;22;20016;-77
2024/01/16 07:37:29;;;;;;;6.18;2.25;;;;;;;;;;6247249;22;20016;-79
2024/01/16 07:39:56;;;;;;;6.80;2.78;;;;;;;;;;6247525;22;20016;-77
2024/01/16 07:42:23;;;;;;;9.63;3.17;;;;;;;;;;6246865;22;20016;-78
2024/01/16 07:44:51;;;;;;;6.15;2.55;;;;;;;;;;6248347;22;20016;-78
2024/01/16 07:47:18;;;;;;;8.43;3.03;;;;;;;;;;6248756;22;20039;-78
2024/01/16 07:49:45;;;;;;;5.15;2.80;;;;;;;;;;6253119;22;20047;-78
2024/01/16 07:52:12;;;;;;;5.55;2.67;;;;;;;;;;6251258;22;20734;-78
2024/01/16 07:54:39;;;;;;;5.13;2.60;;;;;;;;;;6252189;22;20014;-78
2024/01/16 07:57:06;;;;;;;6.88;2.90;;;;;;;;;;6251196;22;20016;-78
2024/01/16 07:59:33;;;;;;;8.95;2.70;;;;;;;;;;6249421;22;20023;-77
2024/01/16 08:01:59;;;;;;;4.97;2.42;;;;;;;;;;6249292;23;20379;-77
2024/01/16 08:04:26;;;;;;;7.82;3.08;;;;;;;;;;6270640;22;20020;-78
2024/01/16 08:06:53;;;;;;;7.82;2.90;;;;;;;;;;6244954;23;20016;-78
2024/01/16 08:09:20;;;;;;;9.25;3.00;;;;;;;;;;6246565;22;20016;-79
2024/01/16 08:11:47;;;;;;;5.90;2.80;;;;;;;;;;6246754;22;20379;-78
2024/01/16 08:14:14;;;;;;;6.70;3.33;;;;;;;;;;6245983;23;20020;-79
2024/01/16 08:16:41;;;;;;;10.20;4.63;;;;;;;;;;6247181;22;20023;-77
2024/01/16 08:19:08;;;;;;;9.98;4.40;;;;;;;;;;6246146;22;20023;-78
2024/01/16 08:21:35;;;;;;;5.75;3.40;;;;;;;;;;6246914;22;20027;-77
2024/01/16 08:24:02;;;;;;;7.95;3.45;;;;;;;;;;6247330;22;20417;-78
2024/01/16 08:26:28;;;;;;;20.38;5.95;;;;;;;;;;6269951;22;20518;-78
2024/01/16 08:28:55;;;;;;;25.10;11.05;;;;;;;;;;6247017;22;20016;-78
2024/01/16 08:31:22;;;;;;;34.25;15.15;;;;;;;;;;6244972;22;20015;-79
2024/01/16 08:33:49;;;;;;;28.58;10.77;;;;;;;;;;6245524;22;20325;-79
2024/01/16 08:36:19;;;;;;;25.88;11.45;;;;;;;;;;6245079;22;20384;-78
2024/01/16 08:38:46;;;;;;;39.47;16.48;;;;;;;;;;6245327;22;20039;-78
2024/01/16 08:41:13;;;;;;;60.28;17.02;;;;;;;;;;6245197;22;20020;-78
2024/01/16 08:43:40;;;;;;;49.83;17.23;;;;;;;;;;6244828;22;20016;-79
2024/01/16 08:46:07;;;;;;;55.40;21.23;;;;;;;;;;6244924;22;20027;-79
2024/01/16 08:48:33;;;;;;;72.10;26.55;;;;;;;;;;6244978;22;20534;-78
2024/01/16 08:51:00;;;;;;;57.97;22.05;;;;;;;;;;6245773;22;20036;-78
2024/01/16 08:53:30;;;;;;;49.65;21.60;;;;;;;;;;6245063;22;20031;-78
2024/01/16 08:55:57;;;;;;;52.38;24.73;;;;;;;;;;6245691;22;20028;-78
2024/01/16 08:58:24;;;;;;;25.15;12.98;;;;;;;;;;6245365;22;20046;-78
2024/01/16 09:00:51;;;;;;;29.98;13.02;;;;;;;;;;6246429;22;20023;-78
2024/01/16 09:03:18;;;;;;;17.77;8.63;;;;;;;;;;6248623;22;20027;-78
2024/01/16 09:05:45;;;;;;;20.63;10.73;;;;;;;;;;6248379;22;20023;-78
2024/01/16 09:08:12;;;;;;;24.95;13.35;;;;;;;;;;6246937;22;20058;-79
2024/01/16 09:10:39;;;;;;;33.35;10.75;;;;;;;;;;6244866;22;20020;-79
2024/01/16 09:13:07;;;;;;;20.17;9.80;;;;;;;;;;6245925;22;20013;-79
2024/01/16 09:15:34;;;;;;;16.35;7.88;;;;;;;;;;6246553;22;20016;-80
2024/01/16 09:18:01;;;;;;;15.65;6.07;;;;;;;;;;6246564;22;20012;-79
2024/01/16 09:20:28;;;;;;;9.18;4.88;;;;;;;;;;6246074;22;20012;-79
2024/01/16 09:22:55;;;;;;;9.38;4.40;;;;;;;;;;6246329;22;20057;-79
2024/01/16 09:25:24;;;;;;;6.20;3.72;;;;;;;;;;6245725;22;20016;-79
2024/01/16 09:27:51;;;;;;;6.75;3.75;;;;;;;;;;6246429;22;20016;-80
2024/01/16 09:30:18;;;;;;;8.57;4.25;;;;;;;;;;6245592;22;20013;-79
2024/01/16 09:32:45;;;;;;;10.63;4.93;;;;;;;;;;6246392;22;20436;-78
2024/01/16 09:35:12;;;;;;;7.88;4.25;;;;;;;;;;6245830;22;20012;-79
2024/01/16 09:37:39;;;;;;;8.93;4.88;;;;;;;;;;6247712;22;20087;-79
2024/01/16 09:40:07;;;;;;;10.20;4.20;;;;;;;;;;6247990;22;20071;-78
2024/01/16 09:42:34;;;;;;;8.00;4.18;;;;;;;;;;6248263;22;20016;-79
2024/01/16 09:45:04;;;;;;;9.13;4.43;;;;;;;;;;6247516;22;20020;-78
2024/01/16 09:47:31;;;;;;;8.98;4.20;;;;;;;;;;6248154;22;20334;-80
2024/01/16 09:50:02;;;;;;;6.13;4.13;;;;;;;;;;6247403;22;20397;-80
2024/01/16 09:52:29;;;;;;;10.95;4.35;;;;;;;;;;6246137;22;20074;-78
2024/01/16 09:54:56;;;;;;;6.53;4.45;;;;;;;;;;6246558;22;20093;-79
2024/01/16 09:57:25;;;;;;;7.38;4.55;;;;;;;;;;6245966;22;20033;-79
2024/01/16 09:59:52;;;;;;;;;;;;;;;;;;6246868;22;20449;-79
2024/01/16 10:02:20;;;;;;;7.60;4.20;;;;;;;;;;6245736;22;19915;-79
2024/01/16 10:04:48;;;;;;;6.75;4.03;;;;;;;;;;6246040;22;20386;-80
2024/01/16 10:07:15;;;;;;;7.20;4.10;;;;;;;;;;6245202;22;20008;-80
2024/01/16 10:09:43;;;;;;;6.20;4.20;;;;;;;;;;6245850;22;20019;-79
2024/01/16 10:12:10;;;;;;;6.57;3.87;;;;;;;;;;6245556;22;20020;-78
2024/01/16 10:14:38;;;;;;;5.97;4.03;;;;;;;;;;6246157;22;20020;-78
2024/01/16 10:17:05;;;;;;;5.80;3.63;;;;;;;;;;6245188;22;20016;-79
2024/01/16 10:19:33;;;;;;;9.32;3.63;;;;;;;;;;6245765;22;20455;-79
2024/01/16 10:22:19;;;;;;;5.70;3.67;;;;;;;;;;6245314;22;20012;-79
2024/01/16 10:25:07;;;;;;;7.68;4.00;;;;;;;;;;6245738;22;20016;-78
2024/01/16 10:27:34;;;;;;;6.22;3.65;;;;;;;;;;6245664;22;20341;-79
2024/01/16 10:30:02;;;;;;;7.63;3.70;;;;;;;;;;6245625;22;20028;-78
2024/01/16 10:32:31;;;;;;;10.25;4.88;;;;;;;;;;6245519;22;20091;-79
2024/01/16 10:35:09;;;;;;;;;;;;;;;;;;6246307;22;20441;-79
2024/01/16 10:37:53;;;;;;;5.63;3.97;;;;;;;;;;6245373;22;19922;-79
2024/01/16 10:40:25;;;;;;;7.93;4.30;;;;;;;;;;6244612;22;20024;-78
2024/01/16 10:43:04;;;;;;;5.03;3.75;;;;;;;;;;6269156;22;20336;-79
2024/01/16 10:45:32;;;;;;;6.93;4.00;;;;;;;;;;6245260;22;20054;-79
2024/01/16 10:48:08;;;;;;;7.30;4.00;;;;;;;;;;6245701;22;20070;-79
2024/01/16 10:50:37;;;;;;;6.93;3.95;;;;;;;;;;6245333;22;20448;-79
2024/01/16 10:53:06;;;;;;;8.65;4.85;;;;;;;;;;6245327;22;20016;-79
2024/01/16 10:55:52;;;;;;;6.55;4.45;;;;;;;;;;6245787;22;20126;-79
2024/01/16 10:58:22;;;;;;;5.22;3.80;;;;;;;;;;6245264;22;20023;-79
2024/01/16 11:00:52;;;;;;;5.32;3.90;;;;;;;;;;6245806;22;20016;-79
2024/01/16 11:03:35;;;;;;;7.22;3.40;;;;;;;;;;6243744;22;20295;-78
2024/01/16 11:06:05;;;;;;;6.65;3.88;;;;;;;;;;6246496;22;20016;-78
2024/01/16 11:08:35;;;;;;;7.38;3.30;;;;;;;;;;6246082;23;20031;-79
2024/01/16 11:11:03;;;;;;;5.60;3.72;;;;;;;;;;6247927;22;20020;-78
2024/01/16 11:13:35;;;;;;;5.65;3.70;;;;;;;;;;6246184;23;20016;-78
2024/01/16 11:16:07;;;;;;;6.80;4.22;;;;;;;;;;6247784;22;20020;-78
2024/01/16 11:18:37;;;;;;;8.18;4.00;;;;;;;;;;6247358;22;20031;-78
2024/01/16 11:21:10;;;;;;;9.20;4.82;;;;;;;;;;6247062;22;20020;-78
2024/01/16 11:23:45;;;;;;;6.90;4.28;;;;;;;;;;6247682;22;20016;-78
2024/01/16 11:26:33;;;;;;;7.07;3.80;;;;;;;;;;6246976;22;20012;-78
2024/01/16 11:29:21;;;;;;;8.25;4.18;;;;;;;;;;6250143;22;20020;-77
2024/01/16 11:31:47;;;;;;;11.05;4.68;;;;;;;;;;6256607;22;20471;-78
2024/01/16 11:34:14;;;;;;;5.93;4.10;;;;;;;;;;6256279;22;20023;-78
2024/01/16 11:36:53;;;;;;;6.80;4.30;;;;;;;;;;6257402;22;20012;-79
2024/01/16 11:39:24;;;;;;;9.57;4.88;;;;;;;;;;6253635;22;20020;-78
2024/01/16 11:41:52;;;;;;;6.90;4.50;;;;;;;;;;6248330;22;20082;-79
2024/01/16 11:44:37;;;;;;;5.35;3.90;;;;;;;;;;6245108;22;20333;-79
2024/01/16 11:47:05;;;;;;;7.38;4.40;;;;;;;;;;6245406;22;20023;-78
2024/01/16 11:49:32;;;;;;;8.27;4.50;;;;;;;;;;6245940;22;20024;-78
2024/01/16 11:51:59;;;;;;;9.73;4.88;;;;;;;;;;6268017;22;20066;-79
2024/01/16 11:54:26;;;;;;;9.10;4.47;;;;;;;;;;6243617;22;20028;-79
2024/01/16 11:57:12;;;;;;;10.57;4.40;;;;;;;;;;6244714;22;20020;-79
2024/01/16 11:59:57;;;;;;;6.53;4.18;;;;;;;;;;6244214;22;20527;-79
2024/01/16 12:02:32;;;;;;;5.55;3.83;;;;;;;;;;6243909;22;20024;-79
2024/01/16 12:05:03;;;;;;;5.88;4.10;;;;;;;;;;6245127;22;20020;-79
2024/01/16 12:07:41;;;;;;;6.78;3.83;;;;;;;;;;6245254;22;20102;-79
2024/01/16 12:10:11;;;;;;;5.22;3.25;;;;;;;;;;6244991;22;20095;-78
2024/01/16 12:12:38;;;;;;;8.18;4.32;;;;;;;;;;6245414;22;20027;-78
2024/01/16 12:15:06;;;;;;;6.70;4.20;;;;;;;;;;6244880;22;20016;-77
2024/01/16 12:17:34;;;;;;;5.53;4.07;;;;;;;;;;6245643;22;20020;-78
2024/01/16 12:20:16;;;;;;;5.93;3.90;;;;;;;;;;6245414;22;20020;-79
2024/01/16 12:22:43;;;;;;;5.57;4.03;;;;;;;;;;6246458;22;20329;-78
2024/01/16 12:25:11;;;;;;;5.80;4.50;;;;;;;;;;6244883;22;20020;-78
2024/01/16 12:27:38;;;;;;;6.57;4.85;;;;;;;;;;6246034;22;20302;-77
2024/01/16 12:30:07;;;;;;;7.30;3.65;;;;;;;;;;6246316;22;20108;-77
2024/01/16 12:32:34;;;;;;;7.03;4.30;;;;;;;;;;6245195;23;20020;-78
2024/01/16 12:35:01;;;;;;;6.63;4.40;;;;;;;;;;6246753;22;20378;-77
2024/01/16 12:37:28;;;;;;;7.43;4.55;;;;;;;;;;6246248;22;20129;-77
2024/01/16 12:39:57;;;;;;;6.78;4.25;;;;;;;;;;6246748;22;20023;-78
2024/01/16 12:42:24;;;;;;;8.80;4.50;;;;;;;;;;6246203;22;20028;-78
2024/01/16 12:44:51;;;;;;;7.57;4.15;;;;;;;;;;6246694;22;20376;-78
2024/01/16 12:47:19;;;;;;;7.07;4.00;;;;;;;;;;6246050;22;20087;-79
2024/01/16 12:49:46;;;;;;;6.63;3.92;;;;;;;;;;6246569;22;20035;-78
2024/01/16 12:52:20;;;;;;;7.22;4.07;;;;;;;;;;6244726;22;20047;-78
2024/01/16 12:54:49;;;;;;;7.32;4.25;;;;;;;;;;6245156;23;20483;-78
2024/01/16 12:57:21;;;;;;;7.00;3.60;;;;;;;;;;6246116;22;20016;-78
2024/01/16 12:59:48;;;;;;;6.57;4.32;;;;;;;;;;6246755;22;20055;-79
2024/01/16 13:02:21;;;;;;;12.17;4.30;;;;;;;;;;6246206;22;20437;-79
2024/01/16 13:04:57;;;;;;;7.05;3.95;;;;;;;;;;6246613;22;20016;-78
2024/01/16 13:07:25;;;;;;;4.78;3.47;;;;;;;;;;6245848;22;20012;-78
2024/01/16 13:10:12;;;;;;;5.53;3.75;;;;;;;;;;6246739;22;20032;-79
2024/01/16 13:12:39;;;;;;;4.75;3.45;;;;;;;;;;6247113;22;20448;-77
2024/01/16 13:15:07;;;;;;;8.40;4.05;;;;;;;;;;6249168;22;20036;-78
2024/01/16 13:17:34;;;;;;;6.20;3.03;;;;;;;;;;6277112;22;20012;-80
2024/01/16 13:20:03;;;;;;;3.55;2.92;;;;;;;;;;6248372;22;20361;-78
2024/01/16 13:22:30;;;;;;;4.82;2.75;;;;;;;;;;6248881;22;20020;-78
2024/01/16 13:25:10;;;;;;;5.47;3.25;;;;;;;;;;6250903;22;20027;-78
2024/01/16 13:27:37;;;;;;;4.65;3.50;;;;;;;;;;6247447;22;20459;-78
2024/01/16 13:30:05;;;;;;;6.88;3.30;;;;;;;;;;6246474;22;20022;-79
2024/01/16 13:32:36;;;;;;;6.43;3.60;;;;;;;;;;6246163;22;20078;-80
2024/01/16 13:35:08;;;;;;;5.88;3.38;;;;;;;;;;6246475;22;20040;-78
2024/01/16 13:37:37;;;;;;;6.78;3.50;;;;;;;;;;6246104;22;20023;-79
2024/01/16 13:40:11;;;;;;;4.90;3.25;;;;;;;;;;6246134;22;20050;-79
2024/01/16 13:42:38;;;;;;;6.30;3.38;;;;;;;;;;6220274;23;20511;-79
2024/01/16 13:45:05;;;;;;;5.63;3.50;;;;;;;;;;6245859;22;20027;-77
2024/01/16 13:47:32;;;;;;;6.53;3.50;;;;;;;;;;6245994;22;20024;-79
2024/01/16 13:50:03;;;;;;;7.57;3.42;;;;;;;;;;6246034;22;20505;-78
2024/01/16 13:52:30;;;;;;;7.22;3.45;;;;;;;;;;6245433;22;20027;-79
2024/01/16 13:54:57;;;;;;;5.20;3.20;;;;;;;;;;6246193;22;20016;-79
2024/01/16 13:57:24;;;;;;;8.30;3.65;;;;;;;;;;6245603;22;20457;-78
2024/01/16 13:59:51;;;;;;;6.43;3.55;;;;;;;;;;6245968;22;20015;-78
2024/01/16 14:02:17;;;;;;;7.38;3.38;;;;;;;;;;6245538;22;20016;-80
2024/01/16 14:04:44;;;;;;;6.43;4.00;;;;;;;;;;6245811;22;20310;-77
2024/01/16 14:07:11;;;;;;;4.60;3.17;;;;;;;;;;6245358;22;20035;-79
2024/01/16 14:09:41;;;;;;;5.20;3.40;;;;;;;;;;6246164;22;20008;-79
2024/01/16 14:12:10;;;;;;;5.72;3.70;;;;;;;;;;6245408;22;20429;-78
2024/01/16 14:14:39;;;;;;;5.57;3.70;;;;;;;;;;6246165;22;21039;-79
2024/01/16 14:17:06;;;;;;;6.63;4.15;;;;;;;;;;6245319;22;20441;-78
2024/01/16 14:19:37;;;;;;;7.47;3.90;;;;;;;;;;6246071;22;20020;-79
2024/01/16 14:22:05;;;;;;;6.57;3.85;;;;;;;;;;6245348;22;20066;-78
2024/01/16 14:24:32;;;;;;;6.32;3.85;;;;;;;;;;6250247;22;20437;-78
2024/01/16 14:26:59;;;;;;;8.23;3.40;;;;;;;;;;6250082;22;20040;-79
2024/01/16 14:29:26;;;;;;;5.60;3.35;;;;;;;;;;6247418;22;20047;-78
2024/01/16 14:31:55;;;;;;;8.68;3.60;;;;;;;;;;6247964;22;20027;-79
2024/01/16 14:34:24;;;;;;;6.85;3.63;;;;;;;;;;6245278;22;20105;-79
2024/01/16 14:36:51;;;;;;;7.53;3.13;;;;;;;;;;6245811;22;20042;-79
2024/01/16 14:39:24;;;;;;;6.03;3.25;;;;;;;;;;6244014;22;20012;-80
2024/01/16 14:41:53;;;;;;;14.43;3.40;;;;;;;;;;6245345;22;20389;-79
2024/01/16 14:44:19;;;;;;;8.45;3.65;;;;;;;;;;6244809;22;20027;-79
2024/01/16 14:46:46;;;;;;;9.45;4.85;;;;;;;;;;6244259;23;20016;-78
2024/01/16 14:49:17;;;;;;;7.65;3.33;;;;;;;;;;6245210;22;20046;-79